Terminal Aerodrome Forecast
Issued by NWS

Home | Current Version | Previous Version | Text Only | Print | Product List | Glossary On
Versions: 1 2 3 4 5 6 7 8 9 10 11 12 13 14 15 16 17 18 19 20
000
FTUS43 KAPX 231327 AAA
TAFPLN
TAF AMD
KPLN 231327Z 2313/2412 29004KT 4SM BR OVC004
      TEMPO 2313/2315 P6SM NSW SCT004 OVC150
     FM231500 27006KT P6SM BKN150
     FM231700 27006KT P6SM SCT050
     FM240000 29008KT P6SM SCT050
     FM240100 33009KT P6SM SCT130
     FM240300 VRB03KT P6SM SCT130=

USA.gov is the U.S. government's official web portal to all federal, state and local government web resources and services.